sensor_id;sensor_type;location;lat;lon;timestamp;pressure;altitude;pressure_sealevel;temperature;humidity
64460;BME280;50828;53.756;21.140;2023-04-25T00:05:16;98530.31;;;11.30;52.29
64460;BME280;50828;53.756;21.140;2023-04-25T00:10:25;98516.06;;;11.17;52.66
64460;BME280;50828;53.756;21.140;2023-04-25T00:15:33;98509.74;;;11.03;52.95
64460;BME280;50828;53.756;21.140;2023-04-25T00:20:41;98505.31;;;10.91;53.06
64460;BME280;50828;53.756;21.140;2023-04-25T00:25:52;98498.61;;;10.77;53.16
64460;BME280;50828;53.756;21.140;2023-04-25T00:30:59;98496.09;;;10.65;52.84
64460;BME280;50828;53.756;21.140;2023-04-25T00:36:08;98496.30;;;10.51;52.84
64460;BME280;50828;53.756;21.140;2023-04-25T00:41:16;98491.05;;;10.37;53.13
64460;BME280;50828;53.756;21.140;2023-04-25T00:46:23;98483.52;;;10.22;53.11
64460;BME280;50828;53.756;21.140;2023-04-25T00:51:30;98483.15;;;10.09;53.48
64460;BME280;50828;53.756;21.140;2023-04-25T00:56:41;98477.33;;;9.95;54.28
64460;BME280;50828;53.756;21.140;2023-04-25T01:01:48;98482.33;;;9.83;54.43
64460;BME280;50828;53.756;21.140;2023-04-25T01:06:56;98481.96;;;9.72;54.69
64460;BME280;50828;53.756;21.140;2023-04-25T01:12:06;98478.97;;;9.61;54.96
64460;BME280;50828;53.756;21.140;2023-04-25T01:17:14;98481.19;;;9.50;54.74
64460;BME280;50828;53.756;21.140;2023-04-25T01:22:22;98485.36;;;9.39;54.67
64460;BME280;50828;53.756;21.140;2023-04-25T01:27:29;98484.05;;;9.26;54.45
64460;BME280;50828;53.756;21.140;2023-04-25T01:32:38;98484.44;;;9.14;55.18
64460;BME280;50828;53.756;21.140;2023-04-25T01:37:46;98477.44;;;9.02;54.70
64460;BME280;50828;53.756;21.140;2023-04-25T01:42:55;98486.02;;;8.91;54.69
64460;BME280;50828;53.756;21.140;2023-04-25T01:48:03;98486.23;;;8.78;55.35
64460;BME280;50828;53.756;21.140;2023-04-25T01:53:11;98494.09;;;8.66;55.45
64460;BME280;50828;53.756;21.140;2023-04-25T01:58:22;98491.92;;;8.55;55.89
64460;BME280;50828;53.756;21.140;2023-04-25T02:03:48;98493.23;;;8.44;56.19
64460;BME280;50828;53.756;21.140;2023-04-25T02:09:11;98493.49;;;8.34;56.05
64460;BME280;50828;53.756;21.140;2023-04-25T02:14:24;98488.47;;;8.23;56.40
64460;BME280;50828;53.756;21.140;2023-04-25T02:19:42;98486.92;;;8.13;56.54
64460;BME280;50828;53.756;21.140;2023-04-25T02:24:50;98476.09;;;8.03;56.75
64460;BME280;50828;53.756;21.140;2023-04-25T02:29:58;98476.90;;;7.95;56.84
64460;BME280;50828;53.756;21.140;2023-04-25T02:35:07;98479.45;;;7.86;56.94
64460;BME280;50828;53.756;21.140;2023-04-25T02:40:15;98479.33;;;7.79;56.66
64460;BME280;50828;53.756;21.140;2023-04-25T02:45:23;98472.94;;;7.71;56.44
64460;BME280;50828;53.756;21.140;2023-04-25T02:50:30;98470.09;;;7.62;56.63
64460;BME280;50828;53.756;21.140;2023-04-25T02:55:38;98465.58;;;7.55;57.22
64460;BME280;50828;53.756;21.140;2023-04-25T03:00:46;98462.65;;;7.47;57.00
64460;BME280;50828;53.756;21.140;2023-04-25T03:05:54;98469.27;;;7.42;57.16
64460;BME280;50828;53.756;21.140;2023-04-25T03:11:05;98465.27;;;7.34;57.57
64460;BME280;50828;53.756;21.140;2023-04-25T03:16:13;98467.78;;;7.30;57.63
64460;BME280;50828;53.756;21.140;2023-04-25T03:21:21;98470.12;;;7.25;58.00
64460;BME280;50828;53.756;21.140;2023-04-25T03:26:29;98474.02;;;7.21;58.35
64460;BME280;50828;53.756;21.140;2023-04-25T03:31:37;98470.52;;;7.17;58.70
64460;BME280;50828;53.756;21.140;2023-04-25T03:36:45;98468.77;;;7.15;58.96
64460;BME280;50828;53.756;21.140;2023-04-25T03:41:53;98469.86;;;7.13;59.27
64460;BME280;50828;53.756;21.140;2023-04-25T03:47:01;98475.45;;;7.10;59.45
64460;BME280;50828;53.756;21.140;2023-04-25T03:52:09;98475.13;;;7.07;60.12
64460;BME280;50828;53.756;21.140;2023-04-25T03:57:17;98468.58;;;7.04;60.29
64460;BME280;50828;53.756;21.140;2023-04-25T04:02:26;98469.95;;;7.05;60.99
64460;BME280;50828;53.756;21.140;2023-04-25T04:07:34;98469.44;;;7.08;60.58
64460;BME280;50828;53.756;21.140;2023-04-25T04:12:48;98466.65;;;7.15;60.52
64460;BME280;50828;53.756;21.140;2023-04-25T04:17:55;98463.13;;;7.29;60.56
64460;BME280;50828;53.756;21.140;2023-04-25T04:23:03;98451.80;;;7.41;60.86
64460;BME280;50828;53.756;21.140;2023-04-25T04:28:11;98450.21;;;7.64;60.76
64460;BME280;50828;53.756;21.140;2023-04-25T04:33:39;98440.41;;;7.92;61.15
64460;BME280;50828;53.756;21.140;2023-04-25T04:38:46;98447.08;;;8.20;60.93
64460;BME280;50828;53.756;21.140;2023-04-25T04:44:08;98451.09;;;8.51;61.36
64460;BME280;50828;53.756;21.140;2023-04-25T04:49:34;98444.69;;;8.89;61.19
64460;BME280;50828;53.756;21.140;2023-04-25T04:55:21;98441.40;;;9.34;61.45
64460;BME280;50828;53.756;21.140;2023-04-25T05:01:04;98440.98;;;9.81;61.02
64460;BME280;50828;53.756;21.140;2023-04-25T05:06:31;98450.17;;;10.27;61.19
64460;BME280;50828;53.756;21.140;2023-04-25T05:11:53;98464.64;;;10.72;60.85
64460;BME280;50828;53.756;21.140;2023-04-25T05:17:27;98467.98;;;11.14;61.15
64460;BME280;50828;53.756;21.140;2023-04-25T05:22:47;98470.48;;;11.49;60.82
64460;BME280;50828;53.756;21.140;2023-04-25T05:28:15;98469.48;;;11.81;60.89
64460;BME280;50828;53.756;21.140;2023-04-25T05:33:46;98472.27;;;12.09;61.09
64460;BME280;50828;53.756;21.140;2023-04-25T05:38:55;98464.94;;;12.30;60.87
64460;BME280;50828;53.756;21.140;2023-04-25T05:44:26;98470.84;;;12.50;60.89
64460;BME280;50828;53.756;21.140;2023-04-25T05:49:51;98474.63;;;12.75;60.38
64460;BME280;50828;53.756;21.140;2023-04-25T05:55:20;98478.14;;;13.04;60.73
64460;BME280;50828;53.756;21.140;2023-04-25T06:00:28;98479.16;;;13.30;60.48
64460;BME280;50828;53.756;21.140;2023-04-25T06:05:36;98478.79;;;13.51;60.35
64460;BME280;50828;53.756;21.140;2023-04-25T06:10:44;98483.34;;;13.70;60.34
64460;BME280;50828;53.756;21.140;2023-04-25T06:15:52;98488.24;;;13.88;60.47
64460;BME280;50828;53.756;21.140;2023-04-25T06:21:00;98496.56;;;14.04;60.47
64460;BME280;50828;53.756;21.140;2023-04-25T06:26:09;98493.95;;;14.12;60.08
64460;BME280;50828;53.756;21.140;2023-04-25T06:31:18;98501.55;;;14.21;60.02
64460;BME280;50828;53.756;21.140;2023-04-25T06:36:27;98506.05;;;14.27;59.99
64460;BME280;50828;53.756;21.140;2023-04-25T06:41:40;98510.45;;;14.27;59.98
64460;BME280;50828;53.756;21.140;2023-04-25T06:47:01;98511.66;;;14.25;60.38
64460;BME280;50828;53.756;21.140;2023-04-25T06:52:09;98514.52;;;14.23;60.14
64460;BME280;50828;53.756;21.140;2023-04-25T06:57:17;98512.92;;;14.21;60.54
64460;BME280;50828;53.756;21.140;2023-04-25T07:02:26;98511.52;;;14.23;60.90
64460;BME280;50828;53.756;21.140;2023-04-25T07:07:35;98514.29;;;14.25;60.93
64460;BME280;50828;53.756;21.140;2023-04-25T07:12:43;98516.16;;;14.29;60.98
64460;BME280;50828;53.756;21.140;2023-04-25T07:17:50;98516.33;;;14.29;60.48
64460;BME280;50828;53.756;21.140;2023-04-25T07:22:59;98509.80;;;14.29;61.06
64460;BME280;50828;53.756;21.140;2023-04-25T07:28:07;98512.83;;;14.33;60.90
64460;BME280;50828;53.756;21.140;2023-04-25T07:33:15;98519.27;;;14.34;60.53
64460;BME280;50828;53.756;21.140;2023-04-25T07:38:23;98523.34;;;14.32;60.46
64460;BME280;50828;53.756;21.140;2023-04-25T07:43:32;98521.36;;;14.30;60.47
64460;BME280;50828;53.756;21.140;2023-04-25T07:48:41;98529.84;;;14.26;60.55
64460;BME280;50828;53.756;21.140;2023-04-25T07:53:49;98538.39;;;14.23;60.58
64460;BME280;50828;53.756;21.140;2023-04-25T07:58:58;98540.69;;;14.19;60.71
64460;BME280;50828;53.756;21.140;2023-04-25T08:04:06;98542.17;;;14.13;61.03
64460;BME280;50828;53.756;21.140;2023-04-25T08:09:37;98553.25;;;14.10;61.92
64460;BME280;50828;53.756;21.140;2023-04-25T08:14:49;98555.34;;;14.08;61.93
64460;BME280;50828;53.756;21.140;2023-04-25T08:19:58;98562.14;;;14.05;62.08
64460;BME280;50828;53.756;21.140;2023-04-25T08:25:09;98564.21;;;14.01;62.04
64460;BME280;50828;53.756;21.140;2023-04-25T08:30:19;98569.45;;;13.93;61.78
64460;BME280;50828;53.756;21.140;2023-04-25T08:35:29;98570.77;;;13.85;62.05
64460;BME280;50828;53.756;21.140;2023-04-25T08:40:39;98567.45;;;13.75;61.94
64460;BME280;50828;53.756;21.140;2023-04-25T08:45:54;98569.77;;;13.68;62.66
64460;BME280;50828;53.756;21.140;2023-04-25T08:51:23;98574.64;;;13.65;62.78
64460;BME280;50828;53.756;21.140;2023-04-25T08:56:33;98583.09;;;13.65;63.26
64460;BME280;50828;53.756;21.140;2023-04-25T09:01:45;98587.38;;;13.67;63.69
64460;BME280;50828;53.756;21.140;2023-04-25T09:06:55;98592.74;;;13.68;63.66
64460;BME280;50828;53.756;21.140;2023-04-25T09:12:04;98597.94;;;13.70;63.39
64460;BME280;50828;53.756;21.140;2023-04-25T09:17:13;98599.62;;;13.69;62.97
64460;BME280;50828;53.756;21.140;2023-04-25T09:22:27;98605.70;;;13.68;63.04
64460;BME280;50828;53.756;21.140;2023-04-25T09:27:36;98608.00;;;13.66;62.77
64460;BME280;50828;53.756;21.140;2023-04-25T09:33:06;98612.13;;;13.60;62.56
64460;BME280;50828;53.756;21.140;2023-04-25T09:38:16;98617.19;;;13.59;62.40
64460;BME280;50828;53.756;21.140;2023-04-25T09:43:37;98617.04;;;13.58;62.58
64460;BME280;50828;53.756;21.140;2023-04-25T09:48:49;98623.93;;;13.61;62.55
64460;BME280;50828;53.756;21.140;2023-04-25T09:54:14;98627.13;;;13.63;62.73
64460;BME280;50828;53.756;21.140;2023-04-25T09:59:27;98632.71;;;13.64;62.42
64460;BME280;50828;53.756;21.140;2023-04-25T10:04:37;98641.92;;;13.64;62.70
64460;BME280;50828;53.756;21.140;2023-04-25T10:09:58;98645.91;;;13.60;62.27
64460;BME280;50828;53.756;21.140;2023-04-25T10:15:10;98645.80;;;13.57;62.54
64460;BME280;50828;53.756;21.140;2023-04-25T10:20:18;98649.48;;;13.53;62.35
64460;BME280;50828;53.756;21.140;2023-04-25T10:25:27;98655.58;;;13.47;62.46
64460;BME280;50828;53.756;21.140;2023-04-25T10:30:35;98659.91;;;13.41;62.32
64460;BME280;50828;53.756;21.140;2023-04-25T10:35:43;98672.43;;;13.34;62.07
64460;BME280;50828;53.756;21.140;2023-04-25T10:41:05;98677.34;;;13.25;61.77
64460;BME280;50828;53.756;21.140;2023-04-25T10:46:24;98676.45;;;13.13;61.84
64460;BME280;50828;53.756;21.140;2023-04-25T10:51:33;98683.59;;;13.00;61.58
64460;BME280;50828;53.756;21.140;2023-04-25T10:57:00;98690.16;;;12.85;61.89
64460;BME280;50828;53.756;21.140;2023-04-25T11:02:13;98699.27;;;12.71;61.94
64460;BME280;50828;53.756;21.140;2023-04-25T11:07:28;98704.21;;;12.59;62.05
64460;BME280;50828;53.756;21.140;2023-04-25T11:12:42;98711.37;;;12.47;62.07
64460;BME280;50828;53.756;21.140;2023-04-25T11:17:52;98721.63;;;12.37;62.01
64460;BME280;50828;53.756;21.140;2023-04-25T11:23:01;98726.91;;;12.27;62.22
64460;BME280;50828;53.756;21.140;2023-04-25T11:28:20;98731.42;;;12.18;62.22
64460;BME280;50828;53.756;21.140;2023-04-25T11:33:29;98731.38;;;12.10;62.44
64460;BME280;50828;53.756;21.140;2023-04-25T11:38:39;98731.77;;;12.05;62.43
64460;BME280;50828;53.756;21.140;2023-04-25T11:43:49;98737.27;;;11.99;62.52
64460;BME280;50828;53.756;21.140;2023-04-25T11:48:59;98737.86;;;11.92;62.50
64460;BME280;50828;53.756;21.140;2023-04-25T11:54:06;98742.41;;;11.88;62.58
64460;BME280;50828;53.756;21.140;2023-04-25T11:59:15;98745.17;;;11.83;62.57
64460;BME280;50828;53.756;21.140;2023-04-25T12:04:25;98744.23;;;11.79;62.51
64460;BME280;50828;53.756;21.140;2023-04-25T12:09:34;98746.95;;;11.78;62.49
64460;BME280;50828;53.756;21.140;2023-04-25T12:14:48;98746.77;;;11.78;62.76
64460;BME280;50828;53.756;21.140;2023-04-25T12:19:56;98748.48;;;11.78;62.87
64460;BME280;50828;53.756;21.140;2023-04-25T12:25:06;98754.29;;;11.82;62.88
64460;BME280;50828;53.756;21.140;2023-04-25T12:30:14;98761.37;;;11.86;62.66
64460;BME280;50828;53.756;21.140;2023-04-25T12:35:23;98762.52;;;11.87;62.44
64460;BME280;50828;53.756;21.140;2023-04-25T12:40:32;98763.31;;;11.86;62.60
64460;BME280;50828;53.756;21.140;2023-04-25T12:45:40;98763.06;;;11.85;62.28
64460;BME280;50828;53.756;21.140;2023-04-25T12:50:49;98762.73;;;11.82;62.05
64460;BME280;50828;53.756;21.140;2023-04-25T12:55:58;98765.11;;;11.78;62.31
64460;BME280;50828;53.756;21.140;2023-04-25T13:01:07;98766.45;;;11.74;62.18
64460;BME280;50828;53.756;21.140;2023-04-25T13:06:15;98768.01;;;11.69;62.12
64460;BME280;50828;53.756;21.140;2023-04-25T13:11:24;98769.50;;;11.65;61.94
64460;BME280;50828;53.756;21.140;2023-04-25T13:16:32;98771.60;;;11.63;61.97
64460;BME280;50828;53.756;21.140;2023-04-25T13:21:41;98768.27;;;11.59;62.14
64460;BME280;50828;53.756;21.140;2023-04-25T13:26:49;98758.98;;;11.55;61.83
64460;BME280;50828;53.756;21.140;2023-04-25T13:31:58;98759.97;;;11.51;61.82
64460;BME280;50828;53.756;21.140;2023-04-25T13:37:07;98756.77;;;11.47;62.00
64460;BME280;50828;53.756;21.140;2023-04-25T13:42:16;98756.17;;;11.42;61.86
64460;BME280;50828;53.756;21.140;2023-04-25T13:47:24;98761.27;;;11.39;62.01
64460;BME280;50828;53.756;21.140;2023-04-25T13:52:33;98771.08;;;11.38;62.11
64460;BME280;50828;53.756;21.140;2023-04-25T13:57:41;98771.60;;;11.38;62.15
64460;BME280;50828;53.756;21.140;2023-04-25T14:02:49;98771.30;;;11.37;62.08
64460;BME280;50828;53.756;21.140;2023-04-25T14:07:57;98767.14;;;11.36;61.71
64460;BME280;50828;53.756;21.140;2023-04-25T14:13:07;98767.70;;;11.35;61.85
64460;BME280;50828;53.756;21.140;2023-04-25T14:18:15;98765.05;;;11.33;61.63
64460;BME280;50828;53.756;21.140;2023-04-25T14:23:23;98777.24;;;11.32;61.81
64460;BME280;50828;53.756;21.140;2023-04-25T14:28:30;98776.63;;;11.31;61.60
64460;BME280;50828;53.756;21.140;2023-04-25T14:33:39;98780.98;;;11.29;61.77
64460;BME280;50828;53.756;21.140;2023-04-25T14:38:49;98785.95;;;11.26;61.59
64460;BME280;50828;53.756;21.140;2023-04-25T14:43:57;98787.30;;;11.24;61.68
64460;BME280;50828;53.756;21.140;2023-04-25T14:49:07;98782.95;;;11.23;61.63
64460;BME280;50828;53.756;21.140;2023-04-25T14:54:16;98785.59;;;11.20;61.68
64460;BME280;50828;53.756;21.140;2023-04-25T14:59:24;98787.59;;;11.19;61.35
64460;BME280;50828;53.756;21.140;2023-04-25T15:04:33;98790.20;;;11.17;61.31
64460;BME280;50828;53.756;21.140;2023-04-25T15:09:42;98786.79;;;11.15;61.39
64460;BME280;50828;53.756;21.140;2023-04-25T15:14:50;98781.51;;;11.12;61.40
64460;BME280;50828;53.756;21.140;2023-04-25T15:19:59;98780.10;;;11.09;61.05
64460;BME280;50828;53.756;21.140;2023-04-25T15:25:08;98777.61;;;11.07;61.15
64460;BME280;50828;53.756;21.140;2023-04-25T15:30:18;98783.41;;;11.05;61.30
64460;BME280;50828;53.756;21.140;2023-04-25T15:35:27;98785.45;;;11.03;61.11
64460;BME280;50828;53.756;21.140;2023-04-25T15:40:36;98787.27;;;11.02;61.38
64460;BME280;50828;53.756;21.140;2023-04-25T15:45:44;98795.51;;;11.00;61.42
64460;BME280;50828;53.756;21.140;2023-04-25T15:50:52;98795.58;;;10.99;61.33
64460;BME280;50828;53.756;21.140;2023-04-25T15:56:00;98797.09;;;10.97;61.47
64460;BME280;50828;53.756;21.140;2023-04-25T16:01:09;98798.23;;;10.96;61.47
64460;BME280;50828;53.756;21.140;2023-04-25T16:06:17;98797.30;;;10.94;61.43
64460;BME280;50828;53.756;21.140;2023-04-25T16:11:25;98803.80;;;10.92;61.64
64460;BME280;50828;53.756;21.140;2023-04-25T16:16:35;98804.34;;;10.89;61.73
64460;BME280;50828;53.756;21.140;2023-04-25T16:21:44;98805.11;;;10.84;61.67
64460;BME280;50828;53.756;21.140;2023-04-25T16:26:53;98806.66;;;10.79;62.12
64460;BME280;50828;53.756;21.140;2023-04-25T16:32:02;98801.40;;;10.73;62.09
64460;BME280;50828;53.756;21.140;2023-04-25T16:37:11;98801.70;;;10.68;62.27
64460;BME280;50828;53.756;21.140;2023-04-25T16:42:19;98807.17;;;10.62;62.20
64460;BME280;50828;53.756;21.140;2023-04-25T16:47:28;98810.55;;;10.53;62.45
64460;BME280;50828;53.756;21.140;2023-04-25T16:52:37;98820.99;;;10.52;62.74
64460;BME280;50828;53.756;21.140;2023-04-25T16:57:49;98823.11;;;10.46;62.63
64460;BME280;50828;53.756;21.140;2023-04-25T17:02:57;98830.36;;;10.39;62.52
64460;BME280;50828;53.756;21.140;2023-04-25T17:08:07;98834.45;;;10.33;62.29
64460;BME280;50828;53.756;21.140;2023-04-25T17:13:15;98841.27;;;10.27;62.10
64460;BME280;50828;53.756;21.140;2023-04-25T17:18:24;98849.53;;;10.21;61.65
64460;BME280;50828;53.756;21.140;2023-04-25T17:23:31;98850.77;;;10.15;61.65
64460;BME280;50828;53.756;21.140;2023-04-25T17:28:39;98848.15;;;10.09;61.86
64460;BME280;50828;53.756;21.140;2023-04-25T17:33:50;98855.88;;;10.03;61.74
64460;BME280;50828;53.756;21.140;2023-04-25T17:38:59;98860.33;;;9.96;61.73
64460;BME280;50828;53.756;21.140;2023-04-25T17:44:07;98859.09;;;9.90;61.90
64460;BME280;50828;53.756;21.140;2023-04-25T17:49:16;98864.83;;;9.85;62.11
64460;BME280;50828;53.756;21.140;2023-04-25T17:54:25;98869.55;;;9.79;62.13
64460;BME280;50828;53.756;21.140;2023-04-25T17:59:33;98873.91;;;9.73;62.18
64460;BME280;50828;53.756;21.140;2023-04-25T18:04:41;98883.39;;;9.67;62.50
64460;BME280;50828;53.756;21.140;2023-04-25T18:09:48;98892.71;;;9.61;62.46
64460;BME280;50828;53.756;21.140;2023-04-25T18:14:56;98891.63;;;9.55;62.89
64460;BME280;50828;53.756;21.140;2023-04-25T18:20:05;98901.98;;;9.49;63.07
64460;BME280;50828;53.756;21.140;2023-04-25T18:25:17;98910.00;;;9.44;62.99
64460;BME280;50828;53.756;21.140;2023-04-25T18:30:26;98916.06;;;9.39;62.93
64460;BME280;50828;53.756;21.140;2023-04-25T18:35:35;98920.61;;;9.32;62.98
64460;BME280;50828;53.756;21.140;2023-04-25T18:40:57;98928.23;;;9.28;63.28
64460;BME280;50828;53.756;21.140;2023-04-25T18:46:25;98931.63;;;9.24;63.28
64460;BME280;50828;53.756;21.140;2023-04-25T18:51:34;98936.27;;;9.19;63.63
64460;BME280;50828;53.756;21.140;2023-04-25T18:56:43;98940.73;;;9.14;63.63
64460;BME280;50828;53.756;21.140;2023-04-25T19:01:52;98943.50;;;9.09;63.86
64460;BME280;50828;53.756;21.140;2023-04-25T19:07:01;98946.61;;;9.03;64.08
64460;BME280;50828;53.756;21.140;2023-04-25T19:12:10;98947.31;;;8.96;63.77
64460;BME280;50828;53.756;21.140;2023-04-25T19:17:19;98947.77;;;8.91;64.31
64460;BME280;50828;53.756;21.140;2023-04-25T19:22:29;98949.79;;;8.85;64.21
64460;BME280;50828;53.756;21.140;2023-04-25T19:27:38;98954.08;;;8.81;64.47
64460;BME280;50828;53.756;21.140;2023-04-25T19:32:47;98957.35;;;8.75;64.38
64460;BME280;50828;53.756;21.140;2023-04-25T19:37:55;98957.11;;;8.70;64.92
64460;BME280;50828;53.756;21.140;2023-04-25T19:43:03;98958.06;;;8.64;64.86
64460;BME280;50828;53.756;21.140;2023-04-25T19:48:12;98952.58;;;8.58;64.81
64460;BME280;50828;53.756;21.140;2023-04-25T19:53:21;98954.10;;;8.52;64.65
64460;BME280;50828;53.756;21.140;2023-04-25T19:58:30;98957.77;;;8.46;64.94
64460;BME280;50828;53.756;21.140;2023-04-25T20:03:40;98953.34;;;8.39;64.75
64460;BME280;50828;53.756;21.140;2023-04-25T20:08:49;98955.91;;;8.33;64.84
64460;BME280;50828;53.756;21.140;2023-04-25T20:14:00;98948.64;;;8.27;64.70
64460;BME280;50828;53.756;21.140;2023-04-25T20:19:07;98948.45;;;8.20;64.88
64460;BME280;50828;53.756;21.140;2023-04-25T20:24:15;98951.49;;;8.16;64.78
64460;BME280;50828;53.756;21.140;2023-04-25T20:29:23;98939.45;;;8.04;64.95
64460;BME280;50828;53.756;21.140;2023-04-25T20:34:32;98954.50;;;8.01;64.87
64460;BME280;50828;53.756;21.140;2023-04-25T20:39:41;98964.06;;;7.95;65.04
64460;BME280;50828;53.756;21.140;2023-04-25T20:44:48;98975.98;;;7.87;64.81
64460;BME280;50828;53.756;21.140;2023-04-25T20:49:56;98979.77;;;7.81;65.08
64460;BME280;50828;53.756;21.140;2023-04-25T20:55:06;98981.83;;;7.74;64.99
64460;BME280;50828;53.756;21.140;2023-04-25T21:00:17;98988.08;;;7.68;64.95
64460;BME280;50828;53.756;21.140;2023-04-25T21:05:34;98994.89;;;7.62;65.03
64460;BME280;50828;53.756;21.140;2023-04-25T21:10:41;98997.70;;;7.53;65.36
64460;BME280;50828;53.756;21.140;2023-04-25T21:15:49;99004.78;;;7.48;65.19
64460;BME280;50828;53.756;21.140;2023-04-25T21:20:57;99008.44;;;7.41;65.15
64460;BME280;50828;53.756;21.140;2023-04-25T21:26:05;99008.08;;;7.33;65.13
64460;BME280;50828;53.756;21.140;2023-04-25T21:31:14;99013.53;;;7.25;65.35
64460;BME280;50828;53.756;21.140;2023-04-25T21:36:22;99012.48;;;7.16;65.34
64460;BME280;50828;53.756;21.140;2023-04-25T21:41:31;99010.75;;;7.08;65.32
64460;BME280;50828;53.756;21.140;2023-04-25T21:46:39;99006.45;;;6.98;65.47
64460;BME280;50828;53.756;21.140;2023-04-25T21:51:48;99007.67;;;6.89;65.31
64460;BME280;50828;53.756;21.140;2023-04-25T21:56:57;99007.36;;;6.80;65.49
64460;BME280;50828;53.756;21.140;2023-04-25T22:02:05;99005.63;;;6.72;65.76
64460;BME280;50828;53.756;21.140;2023-04-25T22:07:14;99008.73;;;6.65;66.18
64460;BME280;50828;53.756;21.140;2023-04-25T22:12:23;99014.95;;;6.58;66.38
64460;BME280;50828;53.756;21.140;2023-04-25T22:17:30;99022.70;;;6.52;66.44
64460;BME280;50828;53.756;21.140;2023-04-25T22:22:39;99025.19;;;6.47;66.53
64460;BME280;50828;53.756;21.140;2023-04-25T22:27:48;99026.83;;;6.41;66.74
64460;BME280;50828;53.756;21.140;2023-04-25T22:32:57;99031.73;;;6.36;66.79
64460;BME280;50828;53.756;21.140;2023-04-25T22:38:05;99035.89;;;6.33;67.35
64460;BME280;50828;53.756;21.140;2023-04-25T22:43:13;99031.64;;;6.30;67.42
64460;BME280;50828;53.756;21.140;2023-04-25T22:48:21;99030.86;;;6.27;67.44
64460;BME280;50828;53.756;21.140;2023-04-25T22:53:29;99023.61;;;6.21;67.51
64460;BME280;50828;53.756;21.140;2023-04-25T22:58:40;99031.79;;;6.22;67.63
64460;BME280;50828;53.756;21.140;2023-04-25T23:03:52;99030.84;;;6.19;68.05
64460;BME280;50828;53.756;21.140;2023-04-25T23:09:00;99040.55;;;6.17;67.81
64460;BME280;50828;53.756;21.140;2023-04-25T23:14:07;99033.32;;;6.14;67.95
64460;BME280;50828;53.756;21.140;2023-04-25T23:19:15;99036.21;;;6.12;67.94
64460;BME280;50828;53.756;21.140;2023-04-25T23:24:23;99038.37;;;6.10;68.16
64460;BME280;50828;53.756;21.140;2023-04-25T23:29:31;99035.45;;;6.09;68.20
64460;BME280;50828;53.756;21.140;2023-04-25T23:34:40;99040.41;;;6.07;68.37
64460;BME280;50828;53.756;21.140;2023-04-25T23:39:51;99039.91;;;6.06;68.40
64460;BME280;50828;53.756;21.140;2023-04-25T23:44:59;99041.72;;;6.05;68.50
64460;BME280;50828;53.756;21.140;2023-04-25T23:50:11;99040.05;;;6.02;68.63
64460;BME280;50828;53.756;21.140;2023-04-25T23:55:19;99044.09;;;6.02;68.85
